sensor_id;sensor_type;location;lat;lon;timestamp;pressure;altitude;pressure_sealevel;temperature;humidity
10881;BME280;5493;48.884;8.338;2023-03-20T00:00:58;100491.91;;;11.70;100.00
10881;BME280;5493;48.884;8.338;2023-03-20T00:03:25;100494.88;;;11.62;100.00
10881;BME280;5493;48.884;8.338;2023-03-20T00:05:52;100496.69;;;11.68;100.00
10881;BME280;5493;48.884;8.338;2023-03-20T00:08:18;100494.50;;;11.59;100.00
10881;BME280;5493;48.884;8.338;2023-03-20T00:10:45;100502.00;;;11.57;100.00
10881;BME280;5493;48.884;8.338;2023-03-20T00:13:14;100494.63;;;11.46;100.00
10881;BME280;5493;48.884;8.338;2023-03-20T00:15:44;100496.38;;;11.58;100.00
10881;BME280;5493;48.884;8.338;2023-03-20T00:18:15;100501.13;;;11.63;100.00
10881;BME280;5493;48.884;8.338;2023-03-20T00:20:43;100495.06;;;11.67;100.00
10881;BME280;5493;48.884;8.338;2023-03-20T00:23:09;100498.81;;;11.66;100.00
10881;BME280;5493;48.884;8.338;2023-03-20T00:25:36;100492.19;;;11.62;100.00
10881;BME280;5493;48.884;8.338;2023-03-20T00:28:27;100502.88;;;11.51;100.00
10881;BME280;5493;48.884;8.338;2023-03-20T00:30:54;100502.88;;;11.51;100.00
10881;BME280;5493;48.884;8.338;2023-03-20T00:33:22;100506.47;;;11.45;100.00
10881;BME280;5493;48.884;8.338;2023-03-20T00:35:51;100506.97;;;11.60;100.00
10881;BME280;5493;48.884;8.338;2023-03-20T00:38:17;100503.00;;;11.62;100.00
10881;BME280;5493;48.884;8.338;2023-03-20T00:40:44;100509.38;;;11.74;100.00
10881;BME280;5493;48.884;8.338;2023-03-20T00:43:12;100504.56;;;11.76;100.00
10881;BME280;5493;48.884;8.338;2023-03-20T00:45:40;100507.34;;;11.63;100.00
10881;BME280;5493;48.884;8.338;2023-03-20T00:48:12;100521.22;;;11.73;100.00
10881;BME280;5493;48.884;8.338;2023-03-20T00:50:41;100507.94;;;11.65;100.00
10881;BME280;5493;48.884;8.338;2023-03-20T00:53:09;100519.34;;;11.74;100.00
10881;BME280;5493;48.884;8.338;2023-03-20T00:55:36;100520.19;;;11.68;100.00
10881;BME280;5493;48.884;8.338;2023-03-20T00:58:05;100512.91;;;11.68;100.00
10881;BME280;5493;48.884;8.338;2023-03-20T01:00:36;100513.41;;;11.59;100.00
10881;BME280;5493;48.884;8.338;2023-03-20T01:03:10;100520.09;;;11.56;100.00
10881;BME280;5493;48.884;8.338;2023-03-20T01:05:37;100522.56;;;11.58;100.00
10881;BME280;5493;48.884;8.338;2023-03-20T01:08:10;100521.00;;;11.75;100.00
10881;BME280;5493;48.884;8.338;2023-03-20T01:10:37;100523.31;;;11.71;100.00
10881;BME280;5493;48.884;8.338;2023-03-20T01:13:05;100510.59;;;11.47;100.00
10881;BME280;5493;48.884;8.338;2023-03-20T01:15:38;100517.13;;;11.64;100.00
10881;BME280;5493;48.884;8.338;2023-03-20T01:18:05;100514.19;;;11.66;100.00
10881;BME280;5493;48.884;8.338;2023-03-20T01:20:31;100520.66;;;11.90;100.00
10881;BME280;5493;48.884;8.338;2023-03-20T01:22:58;100521.47;;;11.90;100.00
10881;BME280;5493;48.884;8.338;2023-03-20T01:25:26;100516.97;;;11.84;100.00
10881;BME280;5493;48.884;8.338;2023-03-20T01:27:53;100518.22;;;11.81;100.00
10881;BME280;5493;48.884;8.338;2023-03-20T01:30:23;100523.38;;;11.58;100.00
10881;BME280;5493;48.884;8.338;2023-03-20T01:32:51;100522.63;;;11.76;100.00
10881;BME280;5493;48.884;8.338;2023-03-20T01:35:20;100526.53;;;11.80;100.00
10881;BME280;5493;48.884;8.338;2023-03-20T01:37:48;100528.97;;;11.88;100.00
10881;BME280;5493;48.884;8.338;2023-03-20T01:40:23;100525.75;;;11.98;100.00
10881;BME280;5493;48.884;8.338;2023-03-20T01:42:53;100535.16;;;11.95;100.00
10881;BME280;5493;48.884;8.338;2023-03-20T01:45:22;100537.25;;;11.93;100.00
10881;BME280;5493;48.884;8.338;2023-03-20T01:47:51;100545.56;;;11.92;100.00
10881;BME280;5493;48.884;8.338;2023-03-20T01:50:24;100547.69;;;11.90;100.00
10881;BME280;5493;48.884;8.338;2023-03-20T01:52:57;100543.25;;;11.95;100.00
10881;BME280;5493;48.884;8.338;2023-03-20T01:55:26;100544.00;;;12.02;100.00
10881;BME280;5493;48.884;8.338;2023-03-20T01:57:56;100548.81;;;12.00;100.00
10881;BME280;5493;48.884;8.338;2023-03-20T02:00:24;100546.13;;;12.00;100.00
10881;BME280;5493;48.884;8.338;2023-03-20T02:02:50;100549.06;;;12.17;100.00
10881;BME280;5493;48.884;8.338;2023-03-20T02:05:21;100544.63;;;12.04;100.00
10881;BME280;5493;48.884;8.338;2023-03-20T02:07:57;100547.09;;;12.06;100.00
10881;BME280;5493;48.884;8.338;2023-03-20T02:10:24;100547.72;;;12.08;100.00
10881;BME280;5493;48.884;8.338;2023-03-20T02:12:51;100548.81;;;12.00;100.00
10881;BME280;5493;48.884;8.338;2023-03-20T02:15:20;100559.34;;;11.83;100.00
10881;BME280;5493;48.884;8.338;2023-03-20T02:17:46;100561.88;;;12.03;100.00
10881;BME280;5493;48.884;8.338;2023-03-20T02:20:21;100556.38;;;11.92;100.00
10881;BME280;5493;48.884;8.338;2023-03-20T02:23:16;100562.41;;;11.94;100.00
10881;BME280;5493;48.884;8.338;2023-03-20T02:26:02;100565.13;;;11.87;100.00
10881;BME280;5493;48.884;8.338;2023-03-20T02:31:59;100568.94;;;11.79;100.00
10881;BME280;5493;48.884;8.338;2023-03-20T02:35:12;100561.78;;;11.92;100.00
10881;BME280;5493;48.884;8.338;2023-03-20T02:38:06;100567.13;;;11.73;100.00
10881;BME280;5493;48.884;8.338;2023-03-20T02:40:41;100566.38;;;11.60;100.00
10881;BME280;5493;48.884;8.338;2023-03-20T02:43:19;100571.94;;;11.71;100.00
10881;BME280;5493;48.884;8.338;2023-03-20T02:45:52;100576.75;;;11.63;100.00
10881;BME280;5493;48.884;8.338;2023-03-20T02:48:29;100578.47;;;11.57;100.00
10881;BME280;5493;48.884;8.338;2023-03-20T02:51:01;100574.63;;;11.65;100.00
10881;BME280;5493;48.884;8.338;2023-03-20T02:53:39;100574.63;;;11.65;100.00
10881;BME280;5493;48.884;8.338;2023-03-20T02:56:12;100579.53;;;11.81;100.00
10881;BME280;5493;48.884;8.338;2023-03-20T02:58:47;100569.19;;;11.78;100.00
10881;BME280;5493;48.884;8.338;2023-03-20T03:01:18;100575.22;;;11.73;100.00
10881;BME280;5493;48.884;8.338;2023-03-20T03:03:49;100578.13;;;11.78;100.00
10881;BME280;5493;48.884;8.338;2023-03-20T03:06:22;100581.34;;;11.87;100.00
10881;BME280;5493;48.884;8.338;2023-03-20T03:08:57;100572.19;;;11.88;100.00
10881;BME280;5493;48.884;8.338;2023-03-20T03:11:26;100580.44;;;11.75;100.00
10881;BME280;5493;48.884;8.338;2023-03-20T03:13:54;100579.03;;;11.91;100.00
10881;BME280;5493;48.884;8.338;2023-03-20T03:16:24;100583.47;;;11.85;100.00
10881;BME280;5493;48.884;8.338;2023-03-20T03:19:01;100585.50;;;11.90;100.00
10881;BME280;5493;48.884;8.338;2023-03-20T03:21:31;100583.56;;;11.72;100.00
10881;BME280;5493;48.884;8.338;2023-03-20T03:24:00;100584.41;;;11.66;100.00
10881;BME280;5493;48.884;8.338;2023-03-20T03:26:30;100578.78;;;11.67;100.00
10881;BME280;5493;48.884;8.338;2023-03-20T03:28:59;100589.34;;;11.69;100.00
10881;BME280;5493;48.884;8.338;2023-03-20T03:31:28;100594.97;;;11.74;100.00
10881;BME280;5493;48.884;8.338;2023-03-20T03:33:57;100598.78;;;11.60;100.00
10881;BME280;5493;48.884;8.338;2023-03-20T03:36:36;100599.59;;;11.35;100.00
10881;BME280;5493;48.884;8.338;2023-03-20T03:39:11;100596.03;;;11.35;100.00
10881;BME280;5493;48.884;8.338;2023-03-20T03:41:44;100599.88;;;11.52;100.00
10881;BME280;5493;48.884;8.338;2023-03-20T03:44:18;100598.75;;;11.35;100.00
10881;BME280;5493;48.884;8.338;2023-03-20T03:46:52;100596.00;;;11.42;100.00
10881;BME280;5493;48.884;8.338;2023-03-20T03:49:22;100592.56;;;11.28;100.00
10881;BME280;5493;48.884;8.338;2023-03-20T03:51:54;100588.00;;;11.28;100.00
10881;BME280;5493;48.884;8.338;2023-03-20T03:54:25;100588.78;;;11.29;100.00
10881;BME280;5493;48.884;8.338;2023-03-20T03:56:53;100581.09;;;11.32;100.00
10881;BME280;5493;48.884;8.338;2023-03-20T03:59:23;100579.66;;;11.30;100.00
10881;BME280;5493;48.884;8.338;2023-03-20T04:01:53;100575.69;;;11.32;100.00
10881;BME280;5493;48.884;8.338;2023-03-20T04:04:23;100576.47;;;11.40;100.00
10881;BME280;5493;48.884;8.338;2023-03-20T04:06:51;100580.63;;;11.42;100.00
10881;BME280;5493;48.884;8.338;2023-03-20T04:09:17;100597.09;;;11.34;100.00
10881;BME280;5493;48.884;8.338;2023-03-20T04:11:48;100593.59;;;11.27;100.00
10881;BME280;5493;48.884;8.338;2023-03-20T04:14:15;100590.94;;;11.20;100.00
10881;BME280;5493;48.884;8.338;2023-03-20T04:16:42;100597.34;;;11.26;100.00
10881;BME280;5493;48.884;8.338;2023-03-20T04:19:08;100596.00;;;11.04;100.00
10881;BME280;5493;48.884;8.338;2023-03-20T04:21:35;100603.59;;;11.20;100.00
10881;BME280;5493;48.884;8.338;2023-03-20T04:24:02;100606.34;;;11.13;100.00
10881;BME280;5493;48.884;8.338;2023-03-20T04:26:29;100609.75;;;10.96;100.00
10881;BME280;5493;48.884;8.338;2023-03-20T04:28:57;100620.47;;;11.09;100.00
10881;BME280;5493;48.884;8.338;2023-03-20T04:31:24;100618.59;;;11.09;100.00
10881;BME280;5493;48.884;8.338;2023-03-20T04:33:50;100623.59;;;11.06;100.00
10881;BME280;5493;48.884;8.338;2023-03-20T04:36:17;100623.75;;;11.11;100.00
10881;BME280;5493;48.884;8.338;2023-03-20T04:38:43;100636.47;;;11.10;100.00
10881;BME280;5493;48.884;8.338;2023-03-20T04:41:10;100635.94;;;11.26;100.00
10881;BME280;5493;48.884;8.338;2023-03-20T04:43:37;100640.78;;;11.11;100.00
10881;BME280;5493;48.884;8.338;2023-03-20T04:46:06;100642.84;;;11.16;100.00
10881;BME280;5493;48.884;8.338;2023-03-20T04:48:32;100637.94;;;11.06;100.00
10881;BME280;5493;48.884;8.338;2023-03-20T04:50:59;100634.16;;;11.14;100.00
10881;BME280;5493;48.884;8.338;2023-03-20T04:53:25;100623.13;;;11.15;100.00
10881;BME280;5493;48.884;8.338;2023-03-20T04:55:52;100631.47;;;11.07;100.00
10881;BME280;5493;48.884;8.338;2023-03-20T04:58:18;100620.41;;;10.77;100.00
10881;BME280;5493;48.884;8.338;2023-03-20T05:00:45;100627.50;;;11.16;100.00
10881;BME280;5493;48.884;8.338;2023-03-20T05:03:13;100618.56;;;11.16;100.00
10881;BME280;5493;48.884;8.338;2023-03-20T05:05:39;100620.41;;;11.22;100.00
10881;BME280;5493;48.884;8.338;2023-03-20T05:08:06;100622.09;;;11.16;100.00
10881;BME280;5493;48.884;8.338;2023-03-20T05:10:33;100622.66;;;11.31;100.00
10881;BME280;5493;48.884;8.338;2023-03-20T05:12:59;100631.28;;;11.02;100.00
10881;BME280;5493;48.884;8.338;2023-03-20T05:15:26;100628.38;;;11.10;100.00
10881;BME280;5493;48.884;8.338;2023-03-20T05:17:52;100638.06;;;11.18;100.00
10881;BME280;5493;48.884;8.338;2023-03-20T05:20:20;100634.16;;;11.07;100.00
10881;BME280;5493;48.884;8.338;2023-03-20T05:22:48;100626.50;;;11.04;100.00
10881;BME280;5493;48.884;8.338;2023-03-20T05:25:15;100623.53;;;11.19;100.00
10881;BME280;5493;48.884;8.338;2023-03-20T05:27:43;100616.94;;;11.08;100.00
10881;BME280;5493;48.884;8.338;2023-03-20T05:30:11;100625.34;;;10.87;100.00
10881;BME280;5493;48.884;8.338;2023-03-20T05:32:38;100623.16;;;11.09;100.00
10881;BME280;5493;48.884;8.338;2023-03-20T05:35:06;100627.25;;;11.18;100.00
10881;BME280;5493;48.884;8.338;2023-03-20T05:37:35;100626.84;;;11.21;100.00
10881;BME280;5493;48.884;8.338;2023-03-20T05:40:01;100627.72;;;11.08;100.00
10881;BME280;5493;48.884;8.338;2023-03-20T05:42:28;100640.63;;;11.00;100.00
10881;BME280;5493;48.884;8.338;2023-03-20T05:44:55;100637.28;;;11.04;100.00
10881;BME280;5493;48.884;8.338;2023-03-20T05:47:21;100640.81;;;11.05;100.00
10881;BME280;5493;48.884;8.338;2023-03-20T05:49:48;100647.50;;;11.02;100.00
10881;BME280;5493;48.884;8.338;2023-03-20T05:52:15;100629.88;;;10.93;100.00
10881;BME280;5493;48.884;8.338;2023-03-20T05:54:43;100645.03;;;10.94;100.00
10881;BME280;5493;48.884;8.338;2023-03-20T05:57:09;100643.28;;;11.13;100.00
10881;BME280;5493;48.884;8.338;2023-03-20T05:59:36;100639.78;;;11.06;100.00
10881;BME280;5493;48.884;8.338;2023-03-20T06:02:02;100637.94;;;11.06;100.00
10881;BME280;5493;48.884;8.338;2023-03-20T06:04:29;100625.03;;;11.08;100.00
10881;BME280;5493;48.884;8.338;2023-03-20T06:06:55;100627.25;;;11.24;100.00
10881;BME280;5493;48.884;8.338;2023-03-20T06:09:22;100620.00;;;11.25;100.00
10881;BME280;5493;48.884;8.338;2023-03-20T06:11:50;100624.28;;;11.32;100.00
10881;BME280;5493;48.884;8.338;2023-03-20T06:14:16;100621.78;;;11.38;100.00
10881;BME280;5493;48.884;8.338;2023-03-20T06:16:43;100624.72;;;11.29;100.00
10881;BME280;5493;48.884;8.338;2023-03-20T06:19:09;100648.81;;;11.62;100.00
10881;BME280;5493;48.884;8.338;2023-03-20T06:21:36;100639.25;;;11.66;100.00
10881;BME280;5493;48.884;8.338;2023-03-20T06:24:03;100632.66;;;11.56;100.00
10881;BME280;5493;48.884;8.338;2023-03-20T06:26:29;100628.78;;;11.45;100.00
10881;BME280;5493;48.884;8.338;2023-03-20T06:28:57;100628.94;;;11.88;100.00
10881;BME280;5493;48.884;8.338;2023-03-20T06:31:24;100634.91;;;11.97;100.00
10881;BME280;5493;48.884;8.338;2023-03-20T06:33:50;100641.81;;;11.93;100.00
10881;BME280;5493;48.884;8.338;2023-03-20T06:36:17;100661.69;;;11.67;100.00
10881;BME280;5493;48.884;8.338;2023-03-20T06:38:43;100642.78;;;11.29;100.00
10881;BME280;5493;48.884;8.338;2023-03-20T06:41:10;100676.59;;;11.76;100.00
10881;BME280;5493;48.884;8.338;2023-03-20T06:43:36;100675.88;;;11.56;100.00
10881;BME280;5493;48.884;8.338;2023-03-20T06:46:05;100674.88;;;11.50;100.00
10881;BME280;5493;48.884;8.338;2023-03-20T06:48:32;100682.75;;;11.52;100.00
10881;BME280;5493;48.884;8.338;2023-03-20T06:50:59;100685.84;;;11.55;100.00
10881;BME280;5493;48.884;8.338;2023-03-20T06:53:25;100685.16;;;11.28;100.00
10881;BME280;5493;48.884;8.338;2023-03-20T06:55:52;100685.47;;;11.52;100.00
10881;BME280;5493;48.884;8.338;2023-03-20T06:58:19;100694.78;;;11.56;100.00
10881;BME280;5493;48.884;8.338;2023-03-20T07:00:45;100698.22;;;11.82;100.00
10881;BME280;5493;48.884;8.338;2023-03-20T07:03:13;100699.59;;;11.54;100.00
10881;BME280;5493;48.884;8.338;2023-03-20T07:05:41;100701.84;;;11.57;100.00
10881;BME280;5493;48.884;8.338;2023-03-20T07:08:07;100705.66;;;11.43;100.00
10881;BME280;5493;48.884;8.338;2023-03-20T07:10:34;100697.56;;;11.36;100.00
10881;BME280;5493;48.884;8.338;2023-03-20T07:13:01;100706.19;;;11.58;100.00
10881;BME280;5493;48.884;8.338;2023-03-20T07:15:29;100701.69;;;11.45;100.00
10881;BME280;5493;48.884;8.338;2023-03-20T07:17:55;100707.16;;;11.70;100.00
10881;BME280;5493;48.884;8.338;2023-03-20T07:20:23;100703.91;;;11.99;100.00
10881;BME280;5493;48.884;8.338;2023-03-20T07:22:50;100703.75;;;11.88;100.00
10881;BME280;5493;48.884;8.338;2023-03-20T07:25:16;100701.19;;;11.61;100.00
10881;BME280;5493;48.884;8.338;2023-03-20T07:27:43;100708.47;;;11.99;100.00
10881;BME280;5493;48.884;8.338;2023-03-20T07:30:15;100695.19;;;11.97;100.00
10881;BME280;5493;48.884;8.338;2023-03-20T07:32:42;100687.19;;;12.09;100.00
10881;BME280;5493;48.884;8.338;2023-03-20T07:35:09;100703.13;;;11.92;100.00
10881;BME280;5493;48.884;8.338;2023-03-20T07:37:37;100692.75;;;11.89;100.00
10881;BME280;5493;48.884;8.338;2023-03-20T07:40:05;100681.63;;;11.66;100.00
10881;BME280;5493;48.884;8.338;2023-03-20T07:42:32;100685.72;;;11.81;100.00
10881;BME280;5493;48.884;8.338;2023-03-20T07:44:59;100686.47;;;11.95;100.00
10881;BME280;5493;48.884;8.338;2023-03-20T07:47:25;100686.63;;;11.75;100.00
10881;BME280;5493;48.884;8.338;2023-03-20T07:49:52;100692.38;;;12.10;100.00
10881;BME280;5493;48.884;8.338;2023-03-20T07:52:18;100693.94;;;12.00;100.00
10881;BME280;5493;48.884;8.338;2023-03-20T07:54:46;100692.28;;;12.23;100.00
10881;BME280;5493;48.884;8.338;2023-03-20T07:57:13;100698.38;;;12.12;100.00
10881;BME280;5493;48.884;8.338;2023-03-20T07:59:39;100696.28;;;11.90;100.00
10881;BME280;5493;48.884;8.338;2023-03-20T08:02:06;100679.69;;;11.79;100.00
10881;BME280;5493;48.884;8.338;2023-03-20T08:04:32;100694.19;;;11.92;100.00
10881;BME280;5493;48.884;8.338;2023-03-20T08:06:59;100680.09;;;12.14;100.00
10881;BME280;5493;48.884;8.338;2023-03-20T08:09:26;100680.09;;;12.14;100.00
10881;BME280;5493;48.884;8.338;2023-03-20T08:11:54;100687.59;;;12.37;100.00
10881;BME280;5493;48.884;8.338;2023-03-20T08:14:20;100694.84;;;12.18;100.00
10881;BME280;5493;48.884;8.338;2023-03-20T08:16:47;100695.94;;;12.36;100.00
10881;BME280;5493;48.884;8.338;2023-03-20T08:19:13;100692.59;;;12.33;100.00
10881;BME280;5493;48.884;8.338;2023-03-20T08:21:40;100695.59;;;12.50;100.00
10881;BME280;5493;48.884;8.338;2023-03-20T08:24:07;100698.19;;;12.39;100.00
10881;BME280;5493;48.884;8.338;2023-03-20T08:26:34;100704.25;;;12.34;100.00
10881;BME280;5493;48.884;8.338;2023-03-20T08:29:02;100711.94;;;12.37;100.00
10881;BME280;5493;48.884;8.338;2023-03-20T08:31:28;100704.56;;;12.69;100.00
10881;BME280;5493;48.884;8.338;2023-03-20T08:33:55;100713.81;;;12.37;100.00
10881;BME280;5493;48.884;8.338;2023-03-20T08:36:22;100708.88;;;12.52;100.00
10881;BME280;5493;48.884;8.338;2023-03-20T08:38:49;100718.28;;;12.92;100.00
10881;BME280;5493;48.884;8.338;2023-03-20T08:41:16;100705.50;;;12.99;100.00
10881;BME280;5493;48.884;8.338;2023-03-20T08:43:43;100713.94;;;12.66;100.00
10881;BME280;5493;48.884;8.338;2023-03-20T08:46:11;100724.09;;;12.71;100.00
10881;BME280;5493;48.884;8.338;2023-03-20T08:48:38;100722.09;;;12.84;100.00
10881;BME280;5493;48.884;8.338;2023-03-20T08:51:05;100712.25;;;12.72;100.00
10881;BME280;5493;48.884;8.338;2023-03-20T08:53:31;100722.88;;;12.67;100.00
10881;BME280;5493;48.884;8.338;2023-03-20T08:55:58;100724.16;;;12.64;100.00
10881;BME280;5493;48.884;8.338;2023-03-20T08:58:24;100733.88;;;12.72;100.00
10881;BME280;5493;48.884;8.338;2023-03-20T09:00:51;100716.00;;;12.46;100.00
10881;BME280;5493;48.884;8.338;2023-03-20T09:03:20;100734.06;;;12.52;100.00
10881;BME280;5493;48.884;8.338;2023-03-20T09:05:48;100722.06;;;12.91;100.00
10881;BME280;5493;48.884;8.338;2023-03-20T09:08:15;100725.50;;;12.55;100.00
10881;BME280;5493;48.884;8.338;2023-03-20T09:10:42;100722.44;;;12.95;100.00
10881;BME280;5493;48.884;8.338;2023-03-20T09:13:10;100718.34;;;13.04;100.00
10881;BME280;5493;48.884;8.338;2023-03-20T09:15:36;100715.81;;;13.09;100.00
10881;BME280;5493;48.884;8.338;2023-03-20T09:18:03;100723.31;;;13.07;100.00
10881;BME280;5493;48.884;8.338;2023-03-20T09:20:31;100728.38;;;13.40;100.00
10881;BME280;5493;48.884;8.338;2023-03-20T09:22:57;100735.41;;;13.77;100.00
10881;BME280;5493;48.884;8.338;2023-03-20T09:25:24;100735.97;;;13.49;100.00
10881;BME280;5493;48.884;8.338;2023-03-20T09:27:50;100735.94;;;13.67;100.00
10881;BME280;5493;48.884;8.338;2023-03-20T09:30:19;100730.53;;;13.49;100.00
10881;BME280;5493;48.884;8.338;2023-03-20T09:32:46;100731.03;;;13.76;100.00
10881;BME280;5493;48.884;8.338;2023-03-20T09:35:12;100735.28;;;13.54;100.00
10881;BME280;5493;48.884;8.338;2023-03-20T09:37:40;100742.66;;;13.95;100.00
10881;BME280;5493;48.884;8.338;2023-03-20T09:40:09;100749.38;;;13.92;100.00
10881;BME280;5493;48.884;8.338;2023-03-20T09:42:52;100753.00;;;13.56;100.00
10881;BME280;5493;48.884;8.338;2023-03-20T09:45:31;100747.16;;;13.71;100.00
10881;BME280;5493;48.884;8.338;2023-03-20T09:48:03;100757.38;;;13.87;100.00
10881;BME280;5493;48.884;8.338;2023-03-20T09:50:34;100754.72;;;13.99;100.00
10881;BME280;5493;48.884;8.338;2023-03-20T09:53:07;100760.63;;;14.07;100.00
10881;BME280;5493;48.884;8.338;2023-03-20T09:55:38;100753.28;;;13.96;100.00
10881;BME280;5493;48.884;8.338;2023-03-20T09:58:11;100741.38;;;13.97;100.00
10881;BME280;5493;48.884;8.338;2023-03-20T10:00:42;100759.03;;;14.29;100.00
10881;BME280;5493;48.884;8.338;2023-03-20T10:03:16;100750.50;;;14.14;100.00
10881;BME280;5493;48.884;8.338;2023-03-20T10:05:45;100751.06;;;13.75;100.00
10881;BME280;5493;48.884;8.338;2023-03-20T10:08:16;100743.97;;;14.04;100.00
10881;BME280;5493;48.884;8.338;2023-03-20T10:10:49;100745.91;;;13.55;100.00
10881;BME280;5493;48.884;8.338;2023-03-20T10:13:42;100737.22;;;13.65;100.00
10881;BME280;5493;48.884;8.338;2023-03-20T10:16:18;100732.81;;;13.70;100.00
10881;BME280;5493;48.884;8.338;2023-03-20T10:18:55;100742.41;;;13.85;100.00
10881;BME280;5493;48.884;8.338;2023-03-20T10:21:27;100731.81;;;14.36;100.00
10881;BME280;5493;48.884;8.338;2023-03-20T10:24:01;100733.66;;;14.12;100.00
10881;BME280;5493;48.884;8.338;2023-03-20T10:26:30;100730.22;;;14.05;100.00
10881;BME280;5493;48.884;8.338;2023-03-20T10:29:00;100726.66;;;14.05;100.00
10881;BME280;5493;48.884;8.338;2023-03-20T10:31:33;100729.44;;;14.28;100.00
10881;BME280;5493;48.884;8.338;2023-03-20T10:34:14;100730.47;;;14.15;100.00
10881;BME280;5493;48.884;8.338;2023-03-20T10:36:54;100733.75;;;14.36;100.00
10881;BME280;5493;48.884;8.338;2023-03-20T10:39:37;100729.63;;;14.79;100.00
10881;BME280;5493;48.884;8.338;2023-03-20T10:42:13;100731.19;;;14.75;100.00
10881;BME280;5493;48.884;8.338;2023-03-20T10:44:48;100730.28;;;14.28;100.00
10881;BME280;5493;48.884;8.338;2023-03-20T10:47:17;100739.41;;;14.46;100.00
10881;BME280;5493;48.884;8.338;2023-03-20T10:49:48;100710.03;;;14.01;100.00
10881;BME280;5493;48.884;8.338;2023-03-20T10:52:19;100735.66;;;14.70;100.00
10881;BME280;5493;48.884;8.338;2023-03-20T10:54:52;100727.63;;;14.52;100.00
10881;BME280;5493;48.884;8.338;2023-03-20T10:57:22;100729.63;;;14.15;100.00
10881;BME280;5493;48.884;8.338;2023-03-20T10:59:50;100727.13;;;15.13;100.00
10881;BME280;5493;48.884;8.338;2023-03-20T11:02:18;100712.31;;;15.55;100.00
10881;BME280;5493;48.884;8.338;2023-03-20T11:04:46;100725.03;;;15.95;100.00
10881;BME280;5493;48.884;8.338;2023-03-20T11:07:18;100707.16;;;15.70;100.00
10881;BME280;5493;48.884;8.338;2023-03-20T11:10:09;100709.28;;;16.97;100.00
10881;BME280;5493;48.884;8.338;2023-03-20T11:12:38;100701.97;;;17.41;100.00
10881;BME280;5493;48.884;8.338;2023-03-20T11:15:18;100696.38;;;17.52;100.00
10881;BME280;5493;48.884;8.338;2023-03-20T11:17:51;100699.66;;;17.76;100.00
10881;BME280;5493;48.884;8.338;2023-03-20T11:20:17;100696.44;;;16.92;100.00
10881;BME280;5493;48.884;8.338;2023-03-20T11:22:46;100700.69;;;17.05;100.00
10881;BME280;5493;48.884;8.338;2023-03-20T11:25:24;100694.44;;;16.04;100.00
10881;BME280;5493;48.884;8.338;2023-03-20T11:27:53;100706.31;;;15.98;100.00
10881;BME280;5493;48.884;8.338;2023-03-20T11:30:21;100704.72;;;15.86;100.00
10881;BME280;5493;48.884;8.338;2023-03-20T11:32:48;100700.56;;;15.95;100.00
10881;BME280;5493;48.884;8.338;2023-03-20T11:35:19;100696.03;;;15.72;100.00
10881;BME280;5493;48.884;8.338;2023-03-20T11:37:48;100688.38;;;15.69;100.00
10881;BME280;5493;48.884;8.338;2023-03-20T11:40:21;100681.63;;;15.71;100.00
10881;BME280;5493;48.884;8.338;2023-03-20T11:42:54;100675.56;;;15.98;100.00
10881;BME280;5493;48.884;8.338;2023-03-20T11:45:21;100676.03;;;16.95;100.00
10881;BME280;5493;48.884;8.338;2023-03-20T11:47:50;100675.94;;;16.90;100.00
10881;BME280;5493;48.884;8.338;2023-03-20T11:50:28;100670.50;;;17.33;100.00
10881;BME280;5493;48.884;8.338;2023-03-20T11:52:56;100668.19;;;17.90;100.00
10881;BME280;5493;48.884;8.338;2023-03-20T11:55:25;100664.91;;;17.40;100.00
10881;BME280;5493;48.884;8.338;2023-03-20T11:57:57;100671.97;;;17.19;100.00
10881;BME280;5493;48.884;8.338;2023-03-20T12:00:25;100676.09;;;16.78;100.00
10881;BME280;5493;48.884;8.338;2023-03-20T12:02:54;100677.56;;;16.36;100.00
10881;BME280;5493;48.884;8.338;2023-03-20T12:05:29;100676.66;;;16.47;100.00
10881;BME280;5493;48.884;8.338;2023-03-20T12:07:57;100675.84;;;16.13;100.00
10881;BME280;5493;48.884;8.338;2023-03-20T12:10:29;100672.53;;;16.11;100.00
10881;BME280;5493;48.884;8.338;2023-03-20T12:13:02;100668.84;;;16.34;100.00
10881;BME280;5493;48.884;8.338;2023-03-20T12:15:32;100666.91;;;16.17;100.00
10881;BME280;5493;48.884;8.338;2023-03-20T12:18:01;100664.88;;;16.08;100.00
10881;BME280;5493;48.884;8.338;2023-03-20T12:20:33;100651.47;;;15.73;100.00
10881;BME280;5493;48.884;8.338;2023-03-20T12:23:09;100663.75;;;15.92;100.00
10881;BME280;5493;48.884;8.338;2023-03-20T12:25:41;100659.56;;;15.56;100.00
10881;BME280;5493;48.884;8.338;2023-03-20T12:28:16;100659.22;;;15.81;100.00
10881;BME280;5493;48.884;8.338;2023-03-20T12:31:02;100655.16;;;15.67;100.00
10881;BME280;5493;48.884;8.338;2023-03-20T12:33:43;100646.56;;;15.30;100.00
10881;BME280;5493;48.884;8.338;2023-03-20T12:36:15;100649.81;;;15.44;100.00
10881;BME280;5493;48.884;8.338;2023-03-20T12:38:43;100648.00;;;15.77;100.00
10881;BME280;5493;48.884;8.338;2023-03-20T12:41:12;100646.28;;;15.71;100.00
10881;BME280;5493;48.884;8.338;2023-03-20T12:44:07;100631.06;;;15.87;100.00
10881;BME280;5493;48.884;8.338;2023-03-20T12:46:42;100628.94;;;16.06;100.00
10881;BME280;5493;48.884;8.338;2023-03-20T12:49:17;100634.94;;;15.91;100.00
10881;BME280;5493;48.884;8.338;2023-03-20T12:51:57;100632.56;;;16.11;100.00
10881;BME280;5493;48.884;8.338;2023-03-20T12:54:35;100624.59;;;16.43;100.00
10881;BME280;5493;48.884;8.338;2023-03-20T12:57:12;100615.56;;;16.76;100.00
10881;BME280;5493;48.884;8.338;2023-03-20T12:59:50;100607.97;;;16.56;100.00
10881;BME280;5493;48.884;8.338;2023-03-20T13:02:33;100616.22;;;16.83;100.00
10881;BME280;5493;48.884;8.338;2023-03-20T13:05:15;100610.56;;;16.51;100.00
10881;BME280;5493;48.884;8.338;2023-03-20T13:07:56;100603.44;;;16.45;100.00